Time;durP1;ratioP1;P1;durP2;ratioP2;P2;SDS_P1;SDS_P2;PMS_P1;PMS_P2;Temp;Humidity;BMP_temperature;BMP_pressure;BME280_temperature;BME280_humidity;BME280_pressure;Samples;Min_cycle;Max_cycle;Signal;HPM_P1;HPM_P2
2023/10/05 00:01:24;;;;;;;1999.90;999.90;;;14.70;99.90;;;;;;5102144;28;20039;-65
2023/10/05 00:03:51;;;;;;;1999.90;999.90;;;14.80;99.90;;;;;;5115588;28;20911;-65
2023/10/05 00:06:28;;;;;;;1999.90;999.90;;;14.80;99.90;;;;;;5115396;28;20458;-65
2023/10/05 00:08:56;;;;;;;1999.90;999.90;;;14.70;99.90;;;;;;5114235;28;20030;-65
2023/10/05 00:11:29;;;;;;;1999.90;999.90;;;14.80;99.90;;;;;;5097995;28;20051;-65
2023/10/05 00:14:07;;;;;;;1999.90;999.90;;;14.80;99.90;;;;;;5108309;28;20027;-66
2023/10/05 00:16:36;;;;;;;1999.90;999.90;;;14.80;99.90;;;;;;5109131;28;20016;-65
2023/10/05 00:19:10;;;;;;;1999.90;999.90;;;14.80;99.90;;;;;;5077492;28;20458;-65
2023/10/05 00:21:50;;;;;;;1999.90;999.90;;;14.80;99.90;;;;;;5110188;28;20075;-66
2023/10/05 00:24:25;;;;;;;1999.90;999.90;;;14.80;99.90;;;;;;5108820;28;20019;-65
2023/10/05 00:26:52;;;;;;;1999.90;999.90;;;14.80;99.90;;;;;;5101143;28;20103;-65
2023/10/05 00:31:44;;;;;;;1999.90;999.90;;;14.80;99.90;;;;;;5100767;28;20052;-65
2023/10/05 00:34:27;;;;;;;1999.90;999.90;;;14.80;99.90;;;;;;5101798;28;20025;-65
2023/10/05 00:36:58;;;;;;;1999.90;999.90;;;14.80;99.90;;;;;;5112287;28;20024;-65
2023/10/05 00:39:25;;;;;;;1999.90;999.90;;;14.80;99.90;;;;;;5109981;28;20066;-66
2023/10/05 00:44:31;;;;;;;1999.90;999.90;;;14.80;99.90;;;;;;5095276;28;20482;-65
2023/10/05 00:47:00;;;;;;;1999.90;999.90;;;14.80;99.90;;;;;;5108205;28;20066;-65
2023/10/05 00:49:30;;;;;;;1999.90;999.90;;;14.80;99.90;;;;;;5104816;28;20032;-66
2023/10/05 00:52:07;;;;;;;1999.90;999.90;;;14.90;99.90;;;;;;5096732;28;20506;-65
2023/10/05 00:54:34;;;;;;;1999.90;999.90;;;14.90;99.90;;;;;;5113410;28;20016;-66
2023/10/05 00:57:08;;;;;;;1999.90;999.90;;;15.00;99.90;;;;;;5111513;28;20023;-65
2023/10/05 00:59:36;;;;;;;1999.90;999.90;;;15.00;99.90;;;;;;5111422;28;20430;-66
2023/10/05 01:04:34;;;;;;;1999.90;999.90;;;14.90;99.90;;;;;;5113452;28;20020;-66
2023/10/05 01:07:17;;;;;;;1999.90;999.90;;;14.90;99.90;;;;;;5107646;28;20491;-77
2023/10/05 01:14:50;;;;;;;1999.90;999.90;;;14.90;99.90;;;;;;5094824;28;20085;-66
2023/10/05 01:17:20;;;;;;;1999.90;999.90;;;14.90;99.90;;;;;;5105723;28;20057;-66
2023/10/05 01:19:50;;;;;;;1999.90;999.90;;;14.90;99.90;;;;;;5102395;28;20028;-78
2023/10/05 01:22:17;;;;;;;1999.90;999.90;;;14.90;99.90;;;;;;5108396;28;20112;-65
2023/10/05 01:24:45;;;;;;;1999.90;999.90;;;14.90;99.90;;;;;;5106174;28;20024;-65
2023/10/05 01:27:11;;;;;;;1999.90;999.90;;;14.90;99.90;;;;;;5095764;28;20440;-66
2023/10/05 01:29:36;;;;;;;1999.90;999.90;;;14.90;99.90;;;;;;5102462;28;20095;-66
2023/10/05 01:32:02;;;;;;;1999.90;999.90;;;14.90;99.90;;;;;;5111109;28;20318;-66
2023/10/05 01:34:28;;;;;;;1999.90;999.90;;;14.90;99.90;;;;;;5094274;28;20049;-66
2023/10/05 01:36:54;;;;;;;1999.90;999.90;;;14.90;99.90;;;;;;5097503;28;20789;-65
2023/10/05 01:39:21;;;;;;;1999.90;999.90;;;14.90;99.90;;;;;;5098721;28;20020;-65
2023/10/05 01:41:48;;;;;;;1999.90;999.90;;;14.90;99.90;;;;;;5096146;28;20024;-66
2023/10/05 01:44:14;;;;;;;;;;;14.90;99.90;;;;;;5095029;28;20055;-76
2023/10/05 01:46:41;;;;;;;1999.90;999.90;;;15.00;99.90;;;;;;5106692;28;19912;-66
2023/10/05 01:49:06;;;;;;;1999.90;999.90;;;15.00;99.90;;;;;;5107804;28;20026;-66
2023/10/05 01:51:32;;;;;;;1999.90;999.90;;;14.90;99.90;;;;;;5105371;28;20326;-65
2023/10/05 01:54:11;;;;;;;1999.90;999.90;;;15.00;99.90;;;;;;5108698;28;20059;-65
2023/10/05 01:56:39;;;;;;;1999.90;999.90;;;15.00;99.90;;;;;;5093069;28;20028;-65
2023/10/05 01:59:07;;;;;;;1999.90;999.90;;;15.00;99.90;;;;;;5104240;28;20079;-74
2023/10/05 02:01:37;;;;;;;1999.90;999.90;;;14.90;99.90;;;;;;5106404;28;20032;-66
2023/10/05 02:04:04;;;;;;;1999.90;999.90;;;14.90;99.90;;;;;;5111857;28;20043;-66
2023/10/05 02:06:42;;;;;;;1999.90;999.90;;;14.80;99.90;;;;;;5114654;28;20119;-65
2023/10/05 02:09:14;;;;;;;1999.90;999.90;;;14.80;99.90;;;;;;5112183;28;20035;-65
2023/10/05 02:11:41;;;;;;;1999.90;999.90;;;14.80;99.90;;;;;;5107379;28;20061;-65
2023/10/05 02:14:06;;;;;;;1999.90;999.90;;;14.80;99.90;;;;;;5106074;28;20045;-76
2023/10/05 02:16:33;;;;;;;1999.90;999.90;;;14.80;99.90;;;;;;5106615;28;20095;-65
2023/10/05 02:19:03;;;;;;;1999.90;999.90;;;14.90;99.90;;;;;;5104252;28;20024;-66
2023/10/05 02:21:36;;;;;;;1999.90;999.90;;;14.90;99.90;;;;;;5108184;28;20060;-65
2023/10/05 02:24:18;;;;;;;1999.90;999.90;;;14.90;99.90;;;;;;5084554;28;20017;-66
2023/10/05 02:29:34;;;;;;;1999.90;999.90;;;14.90;99.90;;;;;;5097892;28;20008;-66
2023/10/05 02:32:09;;;;;;;1999.90;999.90;;;14.90;99.90;;;;;;5101887;28;20028;-65
2023/10/05 02:34:45;;;;;;;1999.90;999.90;;;14.80;99.90;;;;;;5104382;28;20088;-65
2023/10/05 02:37:12;;;;;;;1999.90;999.90;;;14.80;99.90;;;;;;5110032;28;20027;-65
2023/10/05 02:39:39;;;;;;;1999.90;999.90;;;14.80;99.90;;;;;;5104975;28;20073;-65
2023/10/05 02:42:06;;;;;;;1999.90;999.90;;;14.80;99.90;;;;;;5102056;28;20111;-65
2023/10/05 02:44:35;;;;;;;1999.90;999.90;;;14.70;99.90;;;;;;5115721;28;20123;-65
2023/10/05 02:47:08;;;;;;;1999.90;999.90;;;14.70;99.90;;;;;;5117935;28;20114;-65
2023/10/05 02:49:35;;;;;;;1999.90;999.90;;;14.60;99.90;;;;;;5106887;28;20046;-65
2023/10/05 02:52:04;;;;;;;1999.90;999.90;;;14.60;99.90;;;;;;5112850;28;20066;-65
2023/10/05 02:54:30;;;;;;;1999.90;999.90;;;14.60;99.90;;;;;;5115994;28;20877;-74
2023/10/05 02:56:56;;;;;;;1999.90;999.90;;;14.50;99.90;;;;;;5105136;28;20023;-74
2023/10/05 02:59:29;;;;;;;1999.90;999.90;;;14.50;99.90;;;;;;5108293;28;20024;-65
2023/10/05 03:02:00;;;;;;;1999.90;999.90;;;14.40;99.90;;;;;;5110048;28;20026;-65
2023/10/05 03:04:44;;;;;;;1999.90;999.90;;;14.40;99.90;;;;;;5116830;28;20072;-65
2023/10/05 03:07:14;;;;;;;1999.90;999.90;;;14.40;99.90;;;;;;5103120;28;20108;-65
2023/10/05 03:09:41;;;;;;;1999.90;999.90;;;14.40;99.90;;;;;;5116415;28;20172;-65
2023/10/05 03:12:07;;;;;;;1999.90;999.90;;;14.50;99.90;;;;;;5113997;28;20031;-65
2023/10/05 03:14:34;;;;;;;;;;;14.50;99.90;;;;;;5104752;28;20015;-65
2023/10/05 03:17:05;;;;;;;1999.90;999.90;;;14.40;99.90;;;;;;5097122;28;19961;-75
2023/10/05 03:19:36;;;;;;;1999.90;999.90;;;14.40;99.90;;;;;;5115576;28;20318;-65
2023/10/05 03:22:05;;;;;;;1999.90;999.90;;;14.40;99.90;;;;;;5113959;28;20027;-65
2023/10/05 03:24:33;;;;;;;1999.90;999.90;;;14.40;99.90;;;;;;5113374;28;20033;-74
2023/10/05 03:27:03;;;;;;;1999.90;999.90;;;14.40;99.90;;;;;;5114414;28;20040;-65
2023/10/05 03:29:30;;;;;;;1999.90;999.90;;;14.40;99.90;;;;;;5115425;28;20044;-65
2023/10/05 03:32:13;;;;;;;;;;;14.30;99.90;;;;;;5117209;28;20027;-65
2023/10/05 03:34:52;;;;;;;1999.90;999.90;;;14.20;99.90;;;;;;5097101;28;19907;-65
2023/10/05 03:37:18;;;;;;;1999.90;999.90;;;14.20;99.90;;;;;;5108775;28;20349;-65
2023/10/05 03:42:28;;;;;;;1999.90;999.90;;;14.10;99.90;;;;;;5089017;28;20122;-65
2023/10/05 03:45:03;;;;;;;1999.90;999.90;;;14.00;99.90;;;;;;5108620;28;20434;-66
2023/10/05 03:47:30;;;;;;;1999.90;999.90;;;14.00;99.90;;;;;;5096993;28;20031;-65
2023/10/05 03:49:57;;;;;;;1999.90;999.90;;;14.00;99.90;;;;;;5103428;28;20450;-65
2023/10/05 03:52:29;;;;;;;1999.90;999.90;;;13.90;99.90;;;;;;5113132;28;20108;-65
2023/10/05 03:55:01;;;;;;;1999.90;999.90;;;13.90;99.90;;;;;;5115407;28;20059;-65
2023/10/05 03:57:31;;;;;;;1999.90;999.90;;;13.90;99.90;;;;;;5116611;28;20348;-73
2023/10/05 04:00:17;;;;;;;1999.90;999.90;;;13.80;99.90;;;;;;5115777;28;20020;-74
2023/10/05 04:02:44;;;;;;;1999.90;999.90;;;13.80;99.90;;;;;;5116472;28;20035;-65
2023/10/05 04:05:10;;;;;;;1999.90;999.90;;;13.80;99.90;;;;;;5093712;28;20035;-65
2023/10/05 04:07:40;;;;;;;1999.90;999.90;;;13.80;99.90;;;;;;5104572;28;20023;-65
2023/10/05 04:10:07;;;;;;;1999.90;999.90;;;13.80;99.90;;;;;;5101306;28;20073;-65
2023/10/05 04:12:32;;;;;;;1999.90;999.90;;;13.80;99.90;;;;;;5115802;28;20079;-66
2023/10/05 04:15:05;;;;;;;1999.90;999.90;;;13.80;99.90;;;;;;5116059;28;20020;-65
2023/10/05 04:17:31;;;;;;;1999.90;999.90;;;13.80;99.90;;;;;;5114470;28;20031;-65
2023/10/05 04:19:57;;;;;;;1999.90;999.90;;;13.80;99.90;;;;;;5116011;28;20349;-65
2023/10/05 04:22:24;;;;;;;1999.90;999.90;;;13.80;99.90;;;;;;5114436;28;20027;-66
2023/10/05 04:24:50;;;;;;;1999.90;999.90;;;13.70;99.90;;;;;;5100468;28;20059;-65
2023/10/05 04:27:18;;;;;;;1999.90;999.90;;;13.70;99.90;;;;;;5097843;28;20062;-65
2023/10/05 04:29:44;;;;;;;1999.90;999.90;;;13.70;99.90;;;;;;5101438;28;20318;-65
2023/10/05 04:32:15;;;;;;;1999.90;999.90;;;13.70;99.90;;;;;;5094890;28;20035;-65
2023/10/05 04:34:41;;;;;;;1999.90;999.90;;;13.60;99.90;;;;;;5083707;28;20394;-65
2023/10/05 04:37:07;;;;;;;1999.90;999.90;;;13.60;99.90;;;;;;5083509;28;20111;-66
2023/10/05 04:39:32;;;;;;;1999.90;999.90;;;13.60;99.90;;;;;;5097123;28;20023;-65
2023/10/05 04:42:11;;;;;;;1999.90;999.90;;;13.60;99.90;;;;;;5101058;28;20406;-65
2023/10/05 04:44:38;;;;;;;1999.90;999.90;;;13.60;99.90;;;;;;5108950;28;20015;-65
2023/10/05 04:47:04;;;;;;;1999.90;999.90;;;13.60;99.90;;;;;;5089327;28;20047;-65
2023/10/05 04:49:30;;;;;;;;;;;13.60;99.90;;;;;;5093226;28;20067;-65
2023/10/05 04:51:57;;;;;;;1999.90;999.90;;;13.60;99.90;;;;;;5089204;28;19959;-65
2023/10/05 04:54:26;;;;;;;1999.90;999.90;;;13.50;99.90;;;;;;5088601;28;20024;-66
2023/10/05 05:02:22;;;;;;;1999.90;999.90;;;13.60;99.90;;;;;;5031778;28;20420;-65
2023/10/05 05:07:17;;;;;;;1999.90;999.90;;;13.60;99.90;;;;;;5020113;28;20104;-65
2023/10/05 05:09:43;;;;;;;1999.90;999.90;;;13.60;99.90;;;;;;5025063;28;20037;-65
2023/10/05 05:12:16;;;;;;;1999.90;999.90;;;13.50;99.90;;;;;;5027939;28;20049;-74
2023/10/05 05:14:43;;;;;;;1999.90;999.90;;;13.60;99.90;;;;;;5004931;28;20030;-65
2023/10/05 05:17:13;;;;;;;1999.90;999.90;;;13.60;99.90;;;;;;5027953;28;20435;-65
2023/10/05 05:19:39;;;;;;;1999.90;999.90;;;13.60;99.90;;;;;;5028781;28;20042;-74
2023/10/05 05:22:06;;;;;;;1999.90;999.90;;;13.60;99.90;;;;;;5031167;28;20060;-65
2023/10/05 05:24:33;;;;;;;1999.90;999.90;;;13.60;99.90;;;;;;5014784;28;20041;-65
2023/10/05 05:27:11;;;;;;;;;;;13.70;99.90;;;;;;5032149;28;20026;-65
2023/10/05 05:29:36;;;;;;;1999.90;999.90;;;13.70;99.90;;;;;;5028686;28;19978;-65
2023/10/05 05:32:11;;;;;;;1999.90;999.90;;;13.80;99.90;;;;;;5011068;28;20429;-65
2023/10/05 05:34:41;;;;;;;1999.90;999.90;;;13.80;99.90;;;;;;5026953;28;20026;-75
2023/10/05 05:37:08;;;;;;;1999.90;999.90;;;13.80;99.90;;;;;;5043828;28;20100;-65
2023/10/05 05:39:39;;;;;;;1999.90;999.90;;;13.80;99.90;;;;;;5084259;28;20310;-65
2023/10/05 05:42:15;;;;;;;1999.90;999.90;;;13.80;99.90;;;;;;5090002;28;20470;-74
2023/10/05 05:44:42;;;;;;;1999.90;999.90;;;13.80;99.90;;;;;;5086362;28;20110;-66
2023/10/05 05:47:18;;;;;;;1999.90;999.90;;;13.80;99.90;;;;;;5085172;28;20028;-65
2023/10/05 05:49:47;;;;;;;1999.90;999.90;;;13.80;99.90;;;;;;5093760;28;20050;-66
2023/10/05 05:52:14;;;;;;;1999.90;999.90;;;13.70;99.90;;;;;;5104994;28;20036;-65
2023/10/05 05:54:47;;;;;;;1999.90;999.90;;;13.70;99.90;;;;;;5105502;28;20013;-65
2023/10/05 05:57:19;;;;;;;1999.90;999.90;;;13.80;99.90;;;;;;5106966;28;20028;-66
2023/10/05 05:59:45;;;;;;;1999.90;999.90;;;13.80;99.90;;;;;;5096258;28;20296;-65
2023/10/05 06:02:11;;;;;;;1999.90;999.90;;;13.80;99.90;;;;;;5112660;28;20027;-65
2023/10/05 06:04:41;;;;;;;1999.90;999.90;;;13.80;99.90;;;;;;5094469;28;20027;-66
2023/10/05 06:07:13;;;;;;;1999.90;999.90;;;13.80;99.90;;;;;;5109959;28;20071;-65
2023/10/05 06:09:40;;;;;;;1999.90;999.90;;;13.90;99.90;;;;;;5111386;28;20026;-65
2023/10/05 06:12:05;;;;;;;1999.90;999.90;;;13.90;99.90;;;;;;5106390;28;20030;-65
2023/10/05 06:14:35;;;;;;;1999.90;999.90;;;13.90;99.90;;;;;;5111818;28;20028;-65
2023/10/05 06:17:01;;;;;;;1999.90;999.90;;;13.90;99.90;;;;;;5096018;28;20110;-65
2023/10/05 06:19:27;;;;;;;1999.90;999.90;;;13.80;99.90;;;;;;5113850;28;20427;-74
2023/10/05 06:21:53;;;;;;;1999.90;999.90;;;13.90;99.90;;;;;;5107728;28;20035;-66
2023/10/05 06:24:19;;;;;;;1999.90;999.90;;;13.90;99.90;;;;;;5103087;28;20026;-65
2023/10/05 06:26:45;;;;;;;1999.90;999.90;;;14.00;99.90;;;;;;5109415;28;20024;-65
2023/10/05 06:29:13;;;;;;;1999.90;999.90;;;13.90;99.90;;;;;;5092331;28;20733;-74
2023/10/05 06:31:40;;;;;;;1999.90;999.90;;;14.00;99.90;;;;;;5107760;28;20073;-75
2023/10/05 06:34:09;;;;;;;1999.90;999.90;;;14.00;99.90;;;;;;5082317;28;20351;-66
2023/10/05 06:36:37;;;;;;;1999.90;999.90;;;14.10;99.90;;;;;;5111975;28;20058;-65
2023/10/05 06:39:05;;;;;;;1999.90;999.90;;;14.10;99.90;;;;;;5091559;28;20024;-65
2023/10/05 06:41:36;;;;;;;1999.90;999.90;;;14.10;99.90;;;;;;5112308;28;20020;-69
2023/10/05 06:44:03;;;;;;;1999.90;999.90;;;14.10;99.90;;;;;;5114218;27;20029;-66
2023/10/05 06:46:29;;;;;;;;;;;14.10;99.90;;;;;;5109133;27;20060;-66
2023/10/05 06:48:55;;;;;;;1999.90;999.90;;;14.10;99.90;;;;;;5114275;28;19950;-65
2023/10/05 06:51:29;;;;;;;1999.90;999.90;;;14.10;99.90;;;;;;5107771;28;20079;-66
2023/10/05 06:53:57;;;;;;;1999.90;999.90;;;14.10;99.90;;;;;;5103190;28;20389;-65
2023/10/05 06:56:24;;;;;;;1999.90;999.90;;;14.20;99.90;;;;;;5109524;28;20127;-65
2023/10/05 06:58:50;;;;;;;1999.90;999.90;;;14.20;99.90;;;;;;5112392;28;20026;-65
2023/10/05 07:01:20;;;;;;;1999.90;999.90;;;14.30;99.90;;;;;;5113843;27;20019;-66
2023/10/05 07:03:52;;;;;;;1999.90;999.90;;;14.30;99.90;;;;;;5099226;28;20279;-74
2023/10/05 07:06:29;;;;;;;1999.90;999.90;;;14.30;99.90;;;;;;5108236;27;20024;-65
2023/10/05 07:08:55;;;;;;;1999.90;999.90;;;14.30;99.90;;;;;;5094033;28;20027;-66
2023/10/05 07:11:22;;;;;;;1999.90;999.90;;;14.40;99.90;;;;;;5111933;27;20028;-65
2023/10/05 07:13:49;;;;;;;1999.90;999.90;;;14.40;99.90;;;;;;5103099;27;20020;-66
2023/10/05 07:16:16;;;;;;;1999.90;999.90;;;14.40;99.90;;;;;;5117480;27;20054;-66
2023/10/05 07:18:42;;;;;;;;;;;14.40;99.90;;;;;;5117449;27;20070;-66
2023/10/05 07:21:09;;;;;;;1999.90;999.90;;;14.40;99.90;;;;;;5105405;27;20283;-65
2023/10/05 07:23:39;;;;;;;1999.90;999.90;;;14.40;99.90;;;;;;5102280;27;20082;-75
2023/10/05 07:26:06;;;;;;;1999.90;999.90;;;14.40;99.90;;;;;;5105705;27;20040;-66
2023/10/05 07:28:35;;;;;;;1999.90;999.90;;;14.50;99.90;;;;;;5113814;27;20111;-66
2023/10/05 07:31:02;;;;;;;1999.90;999.90;;;14.50;99.90;;;;;;5103515;27;20145;-69
2023/10/05 07:33:29;;;;;;;1999.90;999.90;;;14.60;99.90;;;;;;5109203;27;20035;-66
2023/10/05 07:35:56;;;;;;;;;;;14.60;99.90;;;;;;5101638;27;20084;-74
2023/10/05 07:38:26;;;;;;;1999.90;999.90;;;14.60;99.90;;;;;;5108380;28;19911;-66
2023/10/05 07:40:56;;;;;;;1999.90;999.90;;;14.60;99.90;;;;;;5102958;27;20031;-66
2023/10/05 07:43:22;;;;;;;1999.90;999.90;;;14.60;99.90;;;;;;5114551;27;20104;-65
2023/10/05 07:45:48;;;;;;;1999.90;999.90;;;14.60;99.90;;;;;;5098988;27;20020;-66
2023/10/05 07:48:14;;;;;;;1999.90;999.90;;;14.70;99.90;;;;;;5104378;27;20073;-66
2023/10/05 07:50:40;;;;;;;1999.90;999.90;;;14.70;99.90;;;;;;5102774;27;20122;-66
2023/10/05 07:53:06;;;;;;;1999.90;999.90;;;14.70;99.90;;;;;;5108505;27;20326;-65
2023/10/05 07:55:32;;;;;;;1999.90;999.90;;;14.80;99.90;;;;;;5129024;27;20026;-66
2023/10/05 07:57:58;;;;;;;1999.90;999.90;;;14.80;99.90;;;;;;5121226;27;20015;-66
2023/10/05 08:00:24;;;;;;;1999.90;999.90;;;14.80;99.90;;;;;;5087918;27;20272;-74
2023/10/05 08:02:50;;;;;;;1999.90;999.90;;;14.80;99.90;;;;;;5121687;27;20031;-65
2023/10/05 08:05:16;;;;;;;1999.90;999.90;;;14.80;99.90;;;;;;5101869;27;20423;-74
2023/10/05 08:07:42;;;;;;;1999.90;999.90;;;14.90;99.90;;;;;;5099790;27;20421;-68
2023/10/05 08:10:15;;;;;;;1999.90;999.90;;;14.90;99.90;;;;;;5122533;27;20031;-74
2023/10/05 08:12:50;;;;;;;1999.90;999.90;;;15.00;99.90;;;;;;5102990;27;20028;-66
2023/10/05 08:15:18;;;;;;;1999.90;999.90;;;15.00;99.90;;;;;;5097780;27;20030;-66
2023/10/05 08:17:46;;;;;;;1999.90;999.90;;;15.10;99.90;;;;;;5099893;27;20016;-65
2023/10/05 08:20:12;;;;;;;1999.90;999.90;;;15.10;99.90;;;;;;5117415;27;20034;-69
2023/10/05 08:22:38;;;;;;;1999.90;999.90;;;15.10;99.90;;;;;;5112452;27;20016;-66
2023/10/05 08:25:11;;;;;;;1999.90;999.90;;;15.20;99.90;;;;;;5104996;27;20091;-66
2023/10/05 08:27:44;;;;;;;1999.90;999.90;;;15.20;99.90;;;;;;5099430;27;20077;-66
2023/10/05 08:30:12;;;;;;;1999.90;999.90;;;15.20;99.90;;;;;;5093363;28;20032;-66
2023/10/05 08:32:39;;;;;;;1999.90;999.90;;;15.20;99.90;;;;;;5110589;27;20031;-66
2023/10/05 08:35:17;;;;;;;1999.90;999.90;;;15.30;99.90;;;;;;5108443;27;20425;-66
2023/10/05 08:37:47;;;;;;;1999.90;999.90;;;15.30;99.90;;;;;;5101136;27;20024;-76
2023/10/05 08:43:10;;;;;;;1999.90;999.90;;;15.40;99.90;;;;;;5117444;27;20080;-66
2023/10/05 08:45:47;;;;;;;1999.90;999.90;;;15.40;99.90;;;;;;5116280;27;20023;-66
2023/10/05 08:48:20;;;;;;;1999.90;999.90;;;15.40;99.90;;;;;;5098298;28;20119;-66
2023/10/05 08:50:53;;;;;;;1999.90;999.90;;;15.50;99.90;;;;;;5098852;28;20093;-66
2023/10/05 08:53:22;;;;;;;1999.90;999.90;;;15.50;99.90;;;;;;5097519;28;20310;-74
2023/10/05 08:55:52;;;;;;;1999.90;999.90;;;15.50;99.90;;;;;;5110812;27;20043;-66
2023/10/05 08:58:20;;;;;;;1999.90;999.90;;;15.50;99.90;;;;;;5107714;28;20020;-66
2023/10/05 09:00:47;;;;;;;1999.90;999.90;;;15.50;99.90;;;;;;5095092;28;20043;-66
2023/10/05 09:03:35;;;;;;;1999.90;999.90;;;15.50;99.90;;;;;;5094889;28;20023;-66
2023/10/05 09:06:20;;;;;;;1999.90;999.90;;;15.50;99.90;;;;;;5110080;28;20036;-66
2023/10/05 09:08:54;;;;;;;1999.90;999.90;;;15.40;99.90;;;;;;5094416;28;20017;-65
2023/10/05 09:11:33;;;;;;;1999.90;999.90;;;15.50;99.90;;;;;;5076467;28;20066;-66
2023/10/05 09:14:12;;;;;;;1999.90;999.90;;;15.50;99.90;;;;;;5098040;28;20028;-66
2023/10/05 09:16:43;;;;;;;1999.90;999.90;;;15.60;99.90;;;;;;5106769;27;20093;-66
2023/10/05 09:19:13;;;;;;;1999.90;999.90;;;15.60;99.90;;;;;;5097837;28;20043;-75
2023/10/05 09:22:09;;;;;;;1999.90;999.90;;;15.70;99.90;;;;;;5094464;28;20158;-65
2023/10/05 09:24:36;;;;;;;1999.90;999.90;;;15.70;99.90;;;;;;5094175;28;20012;-66
2023/10/05 09:27:19;;;;;;;1999.90;999.90;;;15.80;99.90;;;;;;5076848;28;20085;-66
2023/10/05 09:29:47;;;;;;;1999.90;999.90;;;15.80;99.90;;;;;;5097393;28;20016;-66
2023/10/05 09:32:23;;;;;;;1999.90;999.90;;;15.80;99.90;;;;;;5109127;28;20047;-66
2023/10/05 09:35:00;;;;;;;1999.90;999.90;;;15.80;99.90;;;;;;5113254;28;20023;-66
2023/10/05 09:37:29;;;;;;;1999.90;999.90;;;15.90;99.90;;;;;;5110680;28;20055;-66
2023/10/05 09:40:03;;;;;;;1999.90;999.90;;;15.90;99.90;;;;;;5107644;28;20299;-66
2023/10/05 09:42:33;;;;;;;1999.90;999.90;;;16.00;99.90;;;;;;5117645;28;20058;-66
2023/10/05 09:45:08;;;;;;;1999.90;999.90;;;16.10;99.90;;;;;;5115605;28;20031;-66
2023/10/05 09:47:35;;;;;;;1999.90;999.90;;;16.10;99.90;;;;;;5108599;28;20024;-66
2023/10/05 09:50:12;;;;;;;1999.90;999.90;;;16.30;99.90;;;;;;5103908;28;20104;-66
2023/10/05 09:52:45;;;;;;;1999.90;999.90;;;16.40;99.90;;;;;;5112699;28;20032;-66
2023/10/05 09:55:17;;;;;;;1999.90;999.90;;;16.50;99.90;;;;;;5113543;28;20019;-66
2023/10/05 09:57:53;;;;;;;1999.90;999.90;;;16.40;99.90;;;;;;5107308;28;20048;-66
2023/10/05 10:03:01;;;;;;;1999.90;999.90;;;16.60;99.90;;;;;;5111453;28;20027;-66
2023/10/05 10:05:48;;;;;;;1999.90;999.90;;;16.60;99.90;;;;;;5110743;28;20115;-66
2023/10/05 10:08:20;;;;;;;1999.90;999.90;;;16.70;99.90;;;;;;5111799;28;20020;-66
2023/10/05 10:11:01;;;;;;;1999.90;999.90;;;16.80;99.90;;;;;;5109988;28;20051;-66
2023/10/05 10:13:37;;;;;;;1999.90;999.90;;;16.80;99.90;;;;;;5112790;28;20035;-66
2023/10/05 10:16:21;;;;;;;1999.90;999.90;;;16.90;99.90;;;;;;5099523;28;20103;-66
2023/10/05 10:18:47;;;;;;;1999.90;999.90;;;16.90;99.90;;;;;;5101041;28;20434;-79
2023/10/05 10:21:24;;;;;;;1999.90;999.90;;;17.00;99.90;;;;;;5104441;28;20066;-66
2023/10/05 10:24:00;;;;;;;1999.90;999.90;;;16.90;99.90;;;;;;5100965;28;20054;-66
2023/10/05 10:26:26;;;;;;;1999.90;999.90;;;17.00;99.90;;;;;;5102717;28;20046;-77
2023/10/05 10:31:22;;;;;;;1999.90;999.90;;;17.10;99.90;;;;;;5103422;28;20260;-66
2023/10/05 10:33:51;;;;;;;1999.90;999.90;;;17.20;99.90;;;;;;5104326;28;20072;-66
2023/10/05 10:36:41;;;;;;;1999.90;999.90;;;17.20;99.90;;;;;;5117629;28;20023;-66
2023/10/05 10:39:23;;;;;;;1999.90;999.90;;;17.40;99.90;;;;;;5114255;28;20160;-66
2023/10/05 10:42:18;;;;;;;1999.90;999.90;;;17.50;99.90;;;;;;5105079;28;20098;-66
2023/10/05 10:47:22;;;;;;;1999.90;999.90;;;17.80;99.90;;;;;;5115977;28;20031;-79
2023/10/05 10:50:11;;;;;;;1999.90;999.90;;;17.90;99.90;;;;;;5115251;28;20127;-66
2023/10/05 10:52:39;;;;;;;1999.90;999.90;;;18.10;99.90;;;;;;5107637;28;20027;-66
2023/10/05 10:55:17;;;;;;;1999.90;999.90;;;18.10;99.90;;;;;;5113509;28;20441;-66
2023/10/05 10:57:47;;;;;;;1999.90;999.90;;;18.10;99.90;;;;;;5116260;28;20015;-66
2023/10/05 11:03:09;;;;;;;;;;;18.30;99.90;;;;;;5114887;28;20436;-68
2023/10/05 11:05:44;;;;;;;1999.90;999.90;;;18.40;99.90;;;;;;5102107;28;20003;-68
2023/10/05 11:08:15;;;;;;;1999.90;999.90;;;18.50;99.90;;;;;;5115893;28;20039;-66
2023/10/05 11:10:42;;;;;;;1999.90;999.90;;;18.50;99.90;;;;;;5106296;28;20030;-67
2023/10/05 11:13:14;;;;;;;1999.90;999.90;;;18.50;99.90;;;;;;5098513;28;20071;-79
2023/10/05 11:16:00;;;;;;;1999.90;999.90;;;18.50;99.90;;;;;;5114135;28;20031;-66
2023/10/05 11:18:39;;;;;;;1999.90;999.90;;;18.50;99.90;;;;;;5102094;28;20080;-68
2023/10/05 11:21:23;;;;;;;1999.90;999.90;;;18.60;99.90;;;;;;5112555;28;20035;-68
2023/10/05 11:23:57;;;;;;;1999.90;999.90;;;18.60;99.90;;;;;;5100017;28;20071;-80
2023/10/05 11:26:33;;;;;;;1999.90;999.90;;;18.60;99.90;;;;;;5078218;28;20047;-68
2023/10/05 11:29:00;;;;;;;1999.90;999.90;;;18.70;99.90;;;;;;5112788;28;20024;-68
2023/10/05 11:31:27;;;;;;;1999.90;999.90;;;18.60;99.90;;;;;;5114336;28;20055;-68
2023/10/05 11:33:53;;;;;;;1999.90;999.90;;;18.60;99.90;;;;;;5094782;28;20032;-69
2023/10/05 11:36:27;;;;;;;1999.90;999.90;;;18.60;99.90;;;;;;5106318;28;20780;-68
2023/10/05 11:38:57;;;;;;;1999.90;999.90;;;18.60;99.90;;;;;;5106559;28;20058;-68
2023/10/05 11:41:30;;;;;;;1999.90;999.90;;;18.70;99.90;;;;;;5097033;28;20191;-68
2023/10/05 11:43:57;;;;;;;1999.90;999.90;;;18.70;99.90;;;;;;5116276;28;20122;-68
2023/10/05 11:46:29;;;;;;;1999.90;999.90;;;18.90;99.90;;;;;;5110155;28;20031;-68
2023/10/05 11:48:56;;;;;;;1999.90;999.90;;;19.10;99.90;;;;;;5096353;28;20073;-68
2023/10/05 11:51:41;;;;;;;1999.90;999.90;;;19.30;99.90;;;;;;5098618;28;20059;-67
2023/10/05 11:54:19;;;;;;;1999.90;999.90;;;19.60;99.90;;;;;;5095955;28;20419;-68
2023/10/05 11:56:46;;;;;;;1999.90;999.90;;;19.70;99.90;;;;;;5101196;28;20030;-67
2023/10/05 11:59:12;;;;;;;1999.90;999.90;;;19.90;99.90;;;;;;5106146;28;20098;-69
2023/10/05 12:01:40;;;;;;;1999.90;999.90;;;20.00;99.90;;;;;;5079350;28;20099;-66
2023/10/05 12:04:08;;;;;;;1999.90;999.90;;;20.00;99.90;;;;;;5096215;28;20028;-67
2023/10/05 12:06:39;;;;;;;1999.90;999.90;;;20.00;99.90;;;;;;5098231;28;20085;-71
2023/10/05 12:09:27;;;;;;;1999.90;999.90;;;20.00;99.90;;;;;;5099298;28;20035;-66
2023/10/05 12:11:58;;;;;;;1999.90;999.90;;;20.00;99.90;;;;;;5100823;28;20028;-66
2023/10/05 12:14:27;;;;;;;1999.90;999.90;;;20.20;99.90;;;;;;5095997;28;20375;-66
2023/10/05 12:16:56;;;;;;;1999.90;999.90;;;20.00;99.90;;;;;;5095759;28;20027;-66
2023/10/05 12:19:29;;;;;;;1999.90;999.90;;;19.90;99.90;;;;;;5098709;28;20028;-66
2023/10/05 12:21:56;;;;;;;1999.90;999.90;;;19.70;99.90;;;;;;5105226;28;20050;-67
2023/10/05 12:24:23;;;;;;;1999.90;999.90;;;19.80;99.90;;;;;;5077844;28;20323;-66
2023/10/05 12:26:50;;;;;;;1999.90;999.90;;;19.90;99.90;;;;;;5095682;28;20057;-67
2023/10/05 12:29:16;;;;;;;1999.90;999.90;;;20.00;99.90;;;;;;5101123;28;20083;-67
2023/10/05 12:31:47;;;;;;;1999.90;999.90;;;20.10;99.90;;;;;;5115968;28;20035;-67
2023/10/05 12:34:16;;;;;;;1999.90;999.90;;;20.00;99.90;;;;;;5097310;28;20346;-67
2023/10/05 12:36:49;;;;;;;1999.90;999.90;;;19.90;99.90;;;;;;5095557;28;20077;-66
2023/10/05 12:39:17;;;;;;;1999.90;999.90;;;19.70;99.90;;;;;;5103620;28;20031;-66
2023/10/05 12:41:43;;;;;;;1999.90;999.90;;;19.60;99.90;;;;;;5108320;28;20050;-67
2023/10/05 12:44:09;;;;;;;1999.90;999.90;;;19.70;99.90;;;;;;5107152;28;20027;-67
2023/10/05 12:46:39;;;;;;;1999.90;999.90;;;19.80;99.90;;;;;;5109738;28;20086;-67
2023/10/05 12:49:09;;;;;;;1999.90;999.90;;;19.80;99.90;;;;;;5105594;28;20027;-66
2023/10/05 12:51:37;;;;;;;1999.90;999.90;;;19.90;99.90;;;;;;5108057;28;20496;-67
2023/10/05 12:54:08;;;;;;;1999.90;999.90;;;20.00;99.90;;;;;;5107547;28;20030;-66
2023/10/05 12:56:38;;;;;;;1999.90;999.90;;;20.10;99.90;;;;;;5101415;28;20080;-67
2023/10/05 12:59:07;;;;;;;1999.90;999.90;;;20.30;99.90;;;;;;5100446;28;20066;-67